Aeroporto :
LOGIN :

Iscrizione | Disclaimer

   EN    FR    IT 

 










Sommario :    VFR   VFR Marginale   IFR   IFR Intensivo   IFR Molto Intensivo
Visibilità : 
Base nubi : 
>= 8 km
>= 3000ft
5 / 8 km
1000 / 3000 ft
1500m / 5 km
500 / 1000 ft
800 / 1500m
200 / 500 ft
< 800m
< 200 ft
Simboli :   Temporali  Nebbia  Neve Forte  Precipitazioni Forti  Vento > 20 kt
SIGMETs :   Varie  Temporali  Ghiacco  Turbolenza  Onda orograficha  Ceneri Vulcaniche






- Altitudine del aeroporto : 1895 ft


LSMM - Meiringen

ULTIMO METAR :
  • 021320Z VRB02KT 9999 SCT056 06/M00 Q1030 RMK BLU+

METARs OBSOLETI :
  • 021250Z 12003KT 040V190 9999 SCT055 04/M02 Q1030 RMK BLU+
  • 021220Z VRB02KT 9999 FEW055 SCT110 04/M01 Q1031 RMK BLU+
  • 021150Z AUTO 00000KT 9999NDV SCT110 05/M00 Q1031 RMK
  • 021120Z AUTO VRB02KT 9999NDV BKN110 04/M00 Q1031 RMK
  • 021050Z VRB01KT 9999 FEW110 BKN130 03/M01 Q1031 RMK BLU

Previsioni scadute.



MetMap, La meteo Aeronautica in un colpo d'occhio ! - Copyright ORBIFLY Dicembre 2007 - Disclaimer

ORBIFLY MET'MAP TEAM :

Programmazione e sviluppo : Alexandra Zaïnal
Concezione : Baudouin d'Aumeries
Supporto tecnico e logistico : Manuel Goepfert
Aiuto : Marc-Olivier Méhu
Aiuto per la traduzione : Arnaldo La Scala




FONTI E CREDITI :

   NOAA